createdAt,value
2023-03-28T00:00:23.000Z,0
2023-03-28T00:01:39.000Z,0
2023-03-28T00:02:56.000Z,0
2023-03-28T00:04:12.000Z,0
2023-03-28T00:05:28.000Z,0
2023-03-28T00:06:45.000Z,0
2023-03-28T00:08:01.000Z,0
2023-03-28T00:09:17.000Z,0
2023-03-28T00:10:33.165Z,0
2023-03-28T00:11:49.000Z,0
2023-03-28T00:13:05.000Z,0
2023-03-28T00:14:21.000Z,0
2023-03-28T00:15:38.000Z,0
2023-03-28T00:16:53.000Z,0
2023-03-28T00:18:08.000Z,0
2023-03-28T00:19:23.000Z,0
2023-03-28T00:20:39.000Z,0
2023-03-28T00:21:55.831Z,0
2023-03-28T00:24:28.000Z,0
2023-03-28T00:25:44.000Z,0
2023-03-28T00:27:00.000Z,0
2023-03-28T00:28:17.000Z,0
2023-03-28T00:29:33.000Z,0
2023-03-28T00:30:49.000Z,0
2023-03-28T00:32:05.000Z,0
2023-03-28T00:33:22.000Z,0
2023-03-28T00:34:38.000Z,0
2023-03-28T00:35:54.000Z,0
2023-03-28T00:37:10.000Z,0
2023-03-28T00:38:26.000Z,0
2023-03-28T00:39:42.000Z,0
2023-03-28T00:40:58.000Z,0
2023-03-28T00:42:15.000Z,0
2023-03-28T00:43:31.737Z,0
2023-03-28T00:44:47.000Z,0
2023-03-28T00:46:04.000Z,0
2023-03-28T00:47:19.000Z,0
2023-03-28T00:48:34.937Z,0
2023-03-28T00:49:50.000Z,0
2023-03-28T00:51:06.000Z,0
2023-03-28T00:52:21.000Z,0
2023-03-28T00:53:37.000Z,0
2023-03-28T00:54:54.000Z,0
2023-03-28T00:56:10.000Z,0
2023-03-28T00:57:26.000Z,0
2023-03-28T00:58:43.000Z,0
2023-03-28T00:59:59.000Z,0
2023-03-28T01:01:15.856Z,0
2023-03-28T01:02:31.000Z,0
2023-03-28T01:03:48.000Z,0
2023-03-28T01:05:04.000Z,0
2023-03-28T01:06:20.000Z,0
2023-03-28T01:07:37.000Z,0
2023-03-28T01:08:52.000Z,0
2023-03-28T01:10:08.000Z,0
2023-03-28T01:11:24.000Z,0
2023-03-28T01:12:41.000Z,0
2023-03-28T01:13:57.000Z,0
2023-03-28T01:15:13.000Z,0
2023-03-28T01:16:30.000Z,0
2023-03-28T01:17:45.000Z,0
2023-03-28T01:19:00.000Z,0
2023-03-28T01:20:16.263Z,0
2023-03-28T01:21:31.000Z,0
2023-03-28T01:22:47.000Z,0
2023-03-28T01:24:03.000Z,0
2023-03-28T01:25:20.000Z,0
2023-03-28T01:26:36.708Z,0
2023-03-28T01:27:52.000Z,0
2023-03-28T01:29:09.000Z,0
2023-03-28T01:30:25.000Z,0
2023-03-28T01:31:41.000Z,0
2023-03-28T01:32:57.000Z,0
2023-03-28T01:34:14.000Z,0
2023-03-28T01:35:30.000Z,0
2023-03-28T01:36:46.000Z,0
2023-03-28T01:38:02.000Z,0
2023-03-28T01:39:18.000Z,0
2023-03-28T01:40:34.000Z,0
2023-03-28T01:41:50.000Z,0
2023-03-28T01:43:07.475Z,0
2023-03-28T01:44:23.000Z,0
2023-03-28T01:45:39.000Z,0
2023-03-28T01:46:55.000Z,0
2023-03-28T01:48:10.000Z,0
2023-03-28T01:49:26.000Z,0
2023-03-28T01:50:42.000Z,0
2023-03-28T01:51:58.000Z,0
2023-03-28T01:53:13.000Z,0
2023-03-28T01:54:29.000Z,0
2023-03-28T01:55:46.442Z,0
2023-03-28T01:57:02.000Z,0
2023-03-28T01:58:18.000Z,0
2023-03-28T01:59:35.000Z,0
2023-03-28T02:00:51.000Z,0
2023-03-28T02:02:07.000Z,0
2023-03-28T02:03:23.000Z,0
2023-03-28T02:04:40.453Z,0
2023-03-28T02:05:56.000Z,0
2023-03-28T02:07:12.000Z,0
2023-03-28T02:08:29.000Z,0
2023-03-28T02:09:44.000Z,0
2023-03-28T02:11:00.000Z,0
2023-03-28T02:12:16.000Z,0
2023-03-28T02:13:33.000Z,0
2023-03-28T02:14:49.000Z,0
2023-03-28T02:16:05.000Z,0
2023-03-28T02:17:22.338Z,0
2023-03-28T02:18:37.666Z,0
2023-03-28T02:19:52.000Z,0
2023-03-28T02:21:09.000Z,0
2023-03-28T02:22:24.000Z,0
2023-03-28T02:23:39.000Z,0
2023-03-28T02:24:55.000Z,0
2023-03-28T02:26:12.000Z,0
2023-03-28T02:27:28.000Z,0
2023-03-28T02:28:44.000Z,0
2023-03-28T02:30:01.000Z,0
2023-03-28T02:31:17.000Z,0
2023-03-28T02:32:33.000Z,0
2023-03-28T02:33:49.000Z,0
2023-03-28T02:35:06.000Z,0
2023-03-28T02:36:22.000Z,0
2023-03-28T02:37:38.000Z,0
2023-03-28T02:38:55.000Z,0
2023-03-28T02:40:11.000Z,0
2023-03-28T02:41:26.893Z,0
2023-03-28T02:42:42.000Z,0
2023-03-28T02:43:59.000Z,0
2023-03-28T02:45:15.779Z,0
2023-03-28T02:46:31.000Z,0
2023-03-28T02:47:48.000Z,0
2023-03-28T02:49:03.669Z,0
2023-03-28T02:50:18.000Z,0
2023-03-28T02:51:35.000Z,0
2023-03-28T02:52:50.000Z,0
2023-03-28T02:54:05.000Z,0
2023-03-28T02:55:22.158Z,0
2023-03-28T02:56:38.000Z,0
2023-03-28T02:57:54.000Z,0
2023-03-28T02:59:10.000Z,0
2023-03-28T03:00:27.000Z,0
2023-03-28T03:01:43.000Z,0
2023-03-28T03:02:59.000Z,0
2023-03-28T03:04:15.000Z,0
2023-03-28T03:05:32.000Z,0
2023-03-28T03:06:48.000Z,0
2023-03-28T03:08:04.000Z,0
2023-03-28T03:09:21.000Z,0
2023-03-28T03:10:36.000Z,0
2023-03-28T03:11:51.000Z,0
2023-03-28T03:13:07.000Z,0
2023-03-28T03:14:24.000Z,0
2023-03-28T03:15:40.000Z,0
2023-03-28T03:16:56.000Z,0
2023-03-28T03:18:13.000Z,0
2023-03-28T03:19:28.000Z,0
2023-03-28T03:20:43.989Z,0
2023-03-28T03:22:00.000Z,0
2023-03-28T03:23:15.000Z,0
2023-03-28T03:24:30.000Z,0
2023-03-28T03:25:46.000Z,0
2023-03-28T03:27:03.000Z,0
2023-03-28T03:28:19.000Z,0
2023-03-28T03:29:35.000Z,0
2023-03-28T03:30:52.000Z,0
2023-03-28T03:32:08.000Z,0
2023-03-28T03:33:24.924Z,0
2023-03-28T03:34:40.000Z,0
2023-03-28T03:35:57.000Z,0
2023-03-28T03:37:13.000Z,0
2023-03-28T03:38:29.000Z,0
2023-03-28T03:39:46.000Z,0
2023-03-28T03:41:01.000Z,0
2023-03-28T03:42:17.000Z,0
2023-03-28T03:43:33.000Z,0
2023-03-28T03:44:50.000Z,0
2023-03-28T03:46:06.795Z,0
2023-03-28T03:47:22.000Z,0
2023-03-28T03:48:39.000Z,0
2023-03-28T03:49:55.000Z,0
2023-03-28T03:51:11.000Z,0
2023-03-28T03:52:27.000Z,0
2023-03-28T03:53:42.000Z,0
2023-03-28T03:54:57.910Z,0
2023-03-28T03:56:12.000Z,0
2023-03-28T03:57:29.000Z,0
2023-03-28T03:58:45.784Z,0
2023-03-28T04:00:02.048Z,0
2023-03-28T04:01:18.000Z,0
2023-03-28T04:02:34.000Z,0
2023-03-28T04:03:50.000Z,0
2023-03-28T04:05:06.000Z,0
2023-03-28T04:06:23.000Z,0
2023-03-28T04:07:39.804Z,0
2023-03-28T04:08:55.000Z,0
2023-03-28T04:10:12.000Z,0
2023-03-28T04:11:28.669Z,0
2023-03-28T04:12:43.000Z,0
2023-03-28T04:14:00.000Z,0
2023-03-28T04:15:16.000Z,0
2023-03-28T04:16:32.000Z,0
2023-03-28T04:17:48.000Z,0
2023-03-28T04:19:05.000Z,0
2023-03-28T04:20:21.000Z,0
2023-03-28T04:21:37.000Z,0
2023-03-28T04:22:54.000Z,0
2023-03-28T04:24:10.000Z,0
2023-03-28T04:25:26.000Z,0
2023-03-28T04:26:42.000Z,0
2023-03-28T04:27:59.000Z,0
2023-03-28T04:29:14.000Z,0
2023-03-28T04:30:30.000Z,0
2023-03-28T04:31:47.000Z,0
2023-03-28T04:33:03.000Z,0
2023-03-28T04:34:19.000Z,0
2023-03-28T04:35:35.000Z,0
2023-03-28T04:36:52.000Z,0
2023-03-28T04:38:08.000Z,0
2023-03-28T04:39:24.000Z,0
2023-03-28T04:40:41.000Z,0
2023-03-28T04:41:57.000Z,0
2023-03-28T04:43:13.000Z,0
2023-03-28T04:44:29.000Z,0
2023-03-28T04:45:45.000Z,0
2023-03-28T04:47:01.000Z,0
2023-03-28T04:48:17.000Z,0
2023-03-28T04:49:34.090Z,0
2023-03-28T04:50:50.000Z,0
2023-03-28T04:52:06.000Z,0
2023-03-28T04:53:22.000Z,0
2023-03-28T04:54:38.000Z,0
2023-03-28T04:55:55.000Z,0
2023-03-28T04:57:10.000Z,0
2023-03-28T04:58:25.000Z,0
2023-03-28T04:59:41.000Z,0
2023-03-28T05:00:58.000Z,0
2023-03-28T05:02:13.502Z,0
2023-03-28T05:03:28.767Z,0
2023-03-28T05:04:44.000Z,0
2023-03-28T05:06:00.000Z,0
2023-03-28T05:07:17.000Z,0
2023-03-28T05:08:33.000Z,0
2023-03-28T05:09:49.000Z,0
2023-03-28T05:11:05.000Z,0
2023-03-28T05:12:22.000Z,0
2023-03-28T05:13:38.000Z,0
2023-03-28T05:14:54.000Z,0
2023-03-28T05:16:11.090Z,5
2023-03-28T05:17:27.345Z,5
2023-03-28T05:18:43.321Z,5
2023-03-28T05:19:58.000Z,5
2023-03-28T05:21:14.000Z,5
2023-03-28T05:22:31.000Z,5
2023-03-28T05:23:47.000Z,5
2023-03-28T05:25:03.000Z,11
2023-03-28T05:26:19.000Z,11
2023-03-28T05:27:35.000Z,11
2023-03-28T05:28:51.000Z,11
2023-03-28T05:30:06.726Z,11
2023-03-28T05:31:21.000Z,16
2023-03-28T05:32:36.000Z,16
2023-03-28T05:33:53.000Z,16
2023-03-28T05:35:09.000Z,16
2023-03-28T05:36:25.000Z,16
2023-03-28T05:37:41.000Z,22
2023-03-28T05:38:58.000Z,22
2023-03-28T05:40:14.660Z,22
2023-03-28T05:41:30.000Z,22
2023-03-28T05:42:47.125Z,22
2023-03-28T05:44:03.000Z,28
2023-03-28T05:45:19.000Z,28
2023-03-28T05:46:35.000Z,28
2023-03-28T05:47:51.000Z,33
2023-03-28T05:49:07.318Z,33
2023-03-28T05:50:23.000Z,33
2023-03-28T05:51:39.000Z,33
2023-03-28T05:52:55.000Z,39
2023-03-28T05:54:11.000Z,39
2023-03-28T05:55:28.000Z,39
2023-03-28T05:56:44.000Z,39
2023-03-28T05:57:59.000Z,45
2023-03-28T05:59:14.000Z,45
2023-03-28T06:00:31.000Z,45
2023-03-28T06:01:47.000Z,50
2023-03-28T06:03:03.000Z,50
2023-03-28T06:04:20.155Z,50
2023-03-28T06:05:35.401Z,56
2023-03-28T06:06:50.000Z,106
2023-03-28T06:08:06.000Z,168
2023-03-28T06:09:22.000Z,146
2023-03-28T06:10:39.000Z,196
2023-03-28T06:11:55.605Z,135
2023-03-28T06:13:11.000Z,118
2023-03-28T06:14:27.000Z,151
2023-03-28T06:15:44.000Z,123
2023-03-28T06:17:00.000Z,196
2023-03-28T06:18:16.752Z,135
2023-03-28T06:19:32.000Z,180
2023-03-28T06:20:48.000Z,168
2023-03-28T06:22:05.000Z,151
2023-03-28T06:23:20.000Z,135
2023-03-28T06:24:36.000Z,146
2023-03-28T06:25:52.000Z,196
2023-03-28T06:27:09.406Z,90
2023-03-28T06:28:25.652Z,146
2023-03-28T06:29:41.000Z,95
2023-03-28T06:30:57.000Z,84
2023-03-28T06:32:13.000Z,84
2023-03-28T06:33:28.000Z,78
2023-03-28T06:34:44.875Z,101
2023-03-28T06:35:59.000Z,78
2023-03-28T06:37:15.000Z,73
2023-03-28T06:38:31.000Z,78
2023-03-28T06:39:47.000Z,90
2023-03-28T06:41:03.000Z,360
2023-03-28T06:42:20.308Z,135
2023-03-28T06:43:36.524Z,455
2023-03-28T06:44:52.774Z,444
2023-03-28T06:46:08.992Z,410
2023-03-28T06:47:24.000Z,365
2023-03-28T06:48:41.000Z,348
2023-03-28T06:49:57.708Z,281
2023-03-28T06:51:13.000Z,331
2023-03-28T06:52:29.000Z,180
2023-03-28T06:53:45.000Z,219
2023-03-28T06:55:01.000Z,292
2023-03-28T06:56:17.898Z,354
2023-03-28T06:57:34.114Z,292
2023-03-28T06:58:50.000Z,298
2023-03-28T07:00:06.000Z,270
2023-03-28T07:01:22.810Z,360
2023-03-28T07:02:37.000Z,241
2023-03-28T07:03:53.000Z,416
2023-03-28T07:05:09.545Z,236
2023-03-28T07:06:24.000Z,275
2023-03-28T07:07:39.000Z,298
2023-03-28T07:08:56.000Z,270
2023-03-28T07:10:12.000Z,213
2023-03-28T07:11:28.000Z,185
2023-03-28T07:14:00.000Z,191
2023-03-28T07:15:17.000Z,185
2023-03-28T07:16:33.000Z,225
2023-03-28T07:17:49.000Z,489
2023-03-28T07:19:05.000Z,466
2023-03-28T07:20:22.000Z,174
2023-03-28T07:21:38.000Z,157
2023-03-28T07:22:54.000Z,90
2023-03-28T07:24:09.000Z,84
2023-03-28T07:25:26.000Z,84
2023-03-28T07:26:41.000Z,84
2023-03-28T07:27:57.853Z,90
2023-03-28T07:29:13.000Z,95
2023-03-28T07:30:30.000Z,101
2023-03-28T07:31:46.558Z,101
2023-03-28T07:33:02.783Z,106
2023-03-28T07:34:18.048Z,112
2023-03-28T07:35:34.271Z,112
2023-03-28T07:36:49.000Z,123
2023-03-28T07:38:04.000Z,135
2023-03-28T07:39:20.000Z,140
2023-03-28T07:40:37.000Z,151
2023-03-28T07:41:53.000Z,163
2023-03-28T07:43:09.737Z,185
2023-03-28T07:44:25.000Z,202
2023-03-28T07:45:41.000Z,202
2023-03-28T07:46:58.429Z,202
2023-03-28T07:48:14.000Z,213
2023-03-28T07:49:30.000Z,225
2023-03-28T07:50:47.138Z,236
2023-03-28T07:52:03.000Z,286
2023-03-28T07:53:19.000Z,607
2023-03-28T07:54:34.000Z,433
2023-03-28T07:55:50.000Z,793
2023-03-28T07:57:07.000Z,320
2023-03-28T07:58:23.000Z,303
2023-03-28T07:59:39.000Z,292
2023-03-28T08:00:55.000Z,281
2023-03-28T08:02:11.000Z,298
2023-03-28T08:03:28.471Z,286
2023-03-28T08:04:44.000Z,286
2023-03-28T08:06:00.000Z,286
2023-03-28T08:07:16.000Z,292
2023-03-28T08:08:33.000Z,298
2023-03-28T08:09:49.646Z,303
2023-03-28T08:11:05.000Z,320
2023-03-28T08:13:37.000Z,326
2023-03-28T08:14:53.000Z,315
2023-03-28T08:16:09.000Z,326
2023-03-28T08:17:25.000Z,320
2023-03-28T08:18:42.000Z,326
2023-03-28T08:19:58.000Z,326
2023-03-28T08:21:14.000Z,315
2023-03-28T08:22:30.000Z,326
2023-03-28T08:23:46.000Z,315
2023-03-28T08:26:19.682Z,405
2023-03-28T08:27:35.000Z,528
2023-03-28T08:28:50.000Z,613
2023-03-28T08:30:07.000Z,601
2023-03-28T08:31:23.000Z,1501
2023-03-28T08:32:39.000Z,1231
2023-03-28T08:33:55.000Z,1614
2023-03-28T08:35:12.000Z,1726
2023-03-28T08:36:28.000Z,1670
2023-03-28T08:37:43.000Z,1665
2023-03-28T08:38:58.000Z,2025
2023-03-28T08:40:15.000Z,1620
2023-03-28T08:41:31.000Z,1338
2023-03-28T08:42:46.000Z,1018
2023-03-28T08:44:02.062Z,883
2023-03-28T08:45:18.000Z,697
2023-03-28T08:46:34.000Z,635
2023-03-28T08:47:50.000Z,933
2023-03-28T08:49:06.000Z,1096
2023-03-28T08:50:23.237Z,708
2023-03-28T08:51:39.000Z,1220
2023-03-28T08:52:55.000Z,1344
2023-03-28T08:54:11.000Z,1248
2023-03-28T08:55:27.000Z,961
2023-03-28T08:56:44.000Z,956
2023-03-28T08:58:00.000Z,703
2023-03-28T08:59:16.851Z,759
2023-03-28T09:00:31.000Z,573
2023-03-28T09:01:48.000Z,748
2023-03-28T09:03:04.000Z,1513
2023-03-28T09:04:20.000Z,866
2023-03-28T09:05:36.000Z,1091
2023-03-28T09:08:09.000Z,1085
2023-03-28T09:09:25.729Z,1282
2023-03-28T09:10:41.000Z,1068
2023-03-28T09:11:58.221Z,1181
2023-03-28T09:13:14.429Z,1147
2023-03-28T09:14:30.674Z,1091
2023-03-28T09:15:46.000Z,1220
2023-03-28T09:17:01.000Z,1057
2023-03-28T09:18:18.000Z,388
2023-03-28T09:19:34.000Z,270
2023-03-28T09:20:50.000Z,264
2023-03-28T09:22:07.123Z,1288
2023-03-28T09:23:23.000Z,1659
2023-03-28T09:24:39.000Z,1631
2023-03-28T09:25:55.000Z,1434
2023-03-28T09:27:11.000Z,1625
2023-03-28T09:28:28.000Z,1693
2023-03-28T09:31:00.000Z,455
2023-03-28T09:32:16.000Z,1597
2023-03-28T09:33:31.000Z,298
2023-03-28T09:34:48.000Z,1946
2023-03-28T09:36:04.000Z,2227
2023-03-28T09:37:20.000Z,1732
2023-03-28T09:38:36.000Z,787
2023-03-28T09:39:53.000Z,731
2023-03-28T09:41:09.598Z,241
2023-03-28T09:42:25.000Z,275
2023-03-28T09:43:41.000Z,427
2023-03-28T09:44:58.318Z,343
2023-03-28T09:46:14.000Z,1305
2023-03-28T09:47:30.784Z,1091
2023-03-28T09:48:46.000Z,1631
2023-03-28T09:50:02.000Z,1878
2023-03-28T09:51:18.000Z,1816
2023-03-28T09:52:34.725Z,135
2023-03-28T09:53:50.000Z,123
2023-03-28T09:55:06.000Z,123
2023-03-28T09:56:23.000Z,129
2023-03-28T09:57:39.000Z,151
2023-03-28T09:58:55.000Z,298
2023-03-28T10:00:12.123Z,2221
2023-03-28T10:01:28.354Z,180
2023-03-28T10:02:44.000Z,146
2023-03-28T10:04:00.000Z,174
2023-03-28T10:05:16.000Z,129
2023-03-28T10:06:32.000Z,129
2023-03-28T10:07:48.553Z,151
2023-03-28T10:09:04.000Z,146
2023-03-28T10:10:20.000Z,168
2023-03-28T10:11:36.000Z,168
2023-03-28T10:12:53.000Z,225
2023-03-28T10:14:09.000Z,151
2023-03-28T10:15:25.952Z,106
2023-03-28T10:16:41.000Z,106
2023-03-28T10:17:58.000Z,112
2023-03-28T10:19:14.634Z,112
2023-03-28T10:20:30.000Z,140
2023-03-28T10:23:03.362Z,180
2023-03-28T10:24:18.000Z,180
2023-03-28T10:25:33.000Z,202
2023-03-28T10:26:49.000Z,247
2023-03-28T10:28:06.322Z,298
2023-03-28T10:29:21.000Z,1068
2023-03-28T10:30:36.823Z,1305
2023-03-28T10:31:52.000Z,506
2023-03-28T10:33:09.000Z,1192
2023-03-28T10:34:25.000Z,1074
2023-03-28T10:35:41.000Z,950
2023-03-28T10:36:57.000Z,928
2023-03-28T10:38:14.215Z,866
2023-03-28T10:39:30.482Z,691
2023-03-28T10:40:46.000Z,703
2023-03-28T10:42:02.000Z,590
2023-03-28T10:43:18.000Z,585
2023-03-28T10:44:35.000Z,545
2023-03-28T10:45:51.648Z,511
2023-03-28T10:47:06.000Z,506
2023-03-28T10:48:22.000Z,388
2023-03-28T10:49:39.000Z,478
2023-03-28T10:50:55.000Z,540
2023-03-28T10:52:11.000Z,579
2023-03-28T10:53:28.056Z,523
2023-03-28T10:54:44.259Z,315
2023-03-28T10:55:59.000Z,213
2023-03-28T10:58:30.000Z,157
2023-03-28T10:59:46.000Z,140
2023-03-28T11:01:01.537Z,135
2023-03-28T11:02:17.000Z,135
2023-03-28T11:03:33.000Z,146
2023-03-28T11:04:49.000Z,157
2023-03-28T11:06:06.000Z,151
2023-03-28T11:07:22.000Z,180
2023-03-28T11:08:38.000Z,191
2023-03-28T11:09:54.000Z,174
2023-03-28T11:11:11.000Z,180
2023-03-28T11:12:27.000Z,225
2023-03-28T11:13:43.000Z,225
2023-03-28T11:14:59.000Z,309
2023-03-28T11:16:16.315Z,489
2023-03-28T11:17:31.000Z,354
2023-03-28T11:18:47.000Z,461
2023-03-28T11:20:03.000Z,444
2023-03-28T11:21:20.000Z,382
2023-03-28T11:22:36.000Z,382
2023-03-28T11:23:52.749Z,382
2023-03-28T11:25:08.000Z,371
2023-03-28T11:26:23.000Z,376
2023-03-28T11:27:39.000Z,382
2023-03-28T11:28:55.000Z,376
2023-03-28T11:30:11.000Z,405
2023-03-28T11:31:28.183Z,410
2023-03-28T11:32:43.000Z,421
2023-03-28T11:33:58.000Z,382
2023-03-28T11:36:30.000Z,326
2023-03-28T11:37:47.000Z,292
2023-03-28T11:40:19.000Z,225
2023-03-28T11:41:34.000Z,196
2023-03-28T11:42:51.000Z,174
2023-03-28T11:44:07.000Z,174
2023-03-28T11:45:23.000Z,180
2023-03-28T11:46:40.055Z,185
2023-03-28T11:47:56.000Z,191
2023-03-28T11:49:11.000Z,202
2023-03-28T11:50:26.000Z,219
2023-03-28T11:51:43.023Z,236
2023-03-28T11:52:59.000Z,264
2023-03-28T11:54:15.489Z,303
2023-03-28T11:55:31.000Z,348
2023-03-28T11:56:47.000Z,360
2023-03-28T11:58:04.180Z,343
2023-03-28T11:59:20.000Z,331
2023-03-28T12:00:36.000Z,309
2023-03-28T12:01:52.897Z,298
2023-03-28T12:03:09.000Z,292
2023-03-28T12:04:24.000Z,286
2023-03-28T12:05:40.000Z,281
2023-03-28T12:06:56.000Z,281
2023-03-28T12:08:12.000Z,281
2023-03-28T12:09:29.000Z,286
2023-03-28T12:10:45.000Z,281
2023-03-28T12:12:01.000Z,270
2023-03-28T12:13:18.139Z,275
2023-03-28T12:14:34.000Z,281
2023-03-28T12:15:50.000Z,286
2023-03-28T12:17:06.864Z,281
2023-03-28T12:18:22.000Z,270
2023-03-28T12:19:39.000Z,281
2023-03-28T12:20:54.000Z,286
2023-03-28T12:22:10.000Z,286
2023-03-28T12:23:26.000Z,298
2023-03-28T12:24:43.275Z,292
2023-03-28T12:25:59.515Z,309
2023-03-28T12:27:15.000Z,303
2023-03-28T12:28:31.000Z,315
2023-03-28T12:29:47.000Z,320
2023-03-28T12:31:04.000Z,331
2023-03-28T12:32:20.000Z,337
2023-03-28T12:33:36.000Z,337
2023-03-28T12:34:52.000Z,337
2023-03-28T12:36:09.000Z,331
2023-03-28T12:37:24.000Z,337
2023-03-28T12:38:40.000Z,343
2023-03-28T12:41:13.000Z,343
2023-03-28T12:42:29.000Z,348
2023-03-28T12:43:45.774Z,365
2023-03-28T12:45:01.000Z,360
2023-03-28T12:46:18.000Z,348
2023-03-28T12:47:34.495Z,354
2023-03-28T12:48:50.000Z,354
2023-03-28T12:50:06.954Z,354
2023-03-28T12:51:23.174Z,348
2023-03-28T12:52:39.420Z,343
2023-03-28T12:53:54.000Z,365
2023-03-28T12:55:10.908Z,371
2023-03-28T12:56:26.000Z,343
2023-03-28T12:57:43.000Z,365
2023-03-28T12:58:59.000Z,365
2023-03-28T13:00:15.000Z,354
2023-03-28T13:01:31.000Z,337
2023-03-28T13:02:48.305Z,326
2023-03-28T13:05:20.000Z,303
2023-03-28T13:06:36.000Z,303
2023-03-28T13:07:53.231Z,309
2023-03-28T13:09:09.000Z,309
2023-03-28T13:10:24.713Z,303
2023-03-28T13:11:40.000Z,298
2023-03-28T13:12:56.000Z,309
2023-03-28T13:14:13.000Z,315
2023-03-28T13:15:29.000Z,315
2023-03-28T13:16:45.000Z,315
2023-03-28T13:18:02.120Z,309
2023-03-28T13:19:18.000Z,303
2023-03-28T13:20:34.000Z,303
2023-03-28T13:21:50.000Z,303
2023-03-28T13:23:06.000Z,303
2023-03-28T13:24:23.000Z,309
2023-03-28T13:25:39.503Z,309
2023-03-28T13:26:54.000Z,309
2023-03-28T13:28:10.000Z,303
2023-03-28T13:29:26.000Z,292
2023-03-28T13:30:43.000Z,286
2023-03-28T13:31:59.000Z,275
2023-03-28T13:33:15.921Z,275
2023-03-28T13:34:31.000Z,275
2023-03-28T13:35:48.000Z,281
2023-03-28T13:37:04.000Z,275
2023-03-28T13:38:20.000Z,286
2023-03-28T13:39:36.000Z,292
2023-03-28T13:40:53.323Z,298
2023-03-28T13:42:09.000Z,298
2023-03-28T13:43:24.000Z,292
2023-03-28T13:44:40.000Z,286
2023-03-28T13:45:57.000Z,281
2023-03-28T13:47:13.000Z,275
2023-03-28T13:48:29.744Z,270
2023-03-28T13:49:45.958Z,270
2023-03-28T13:51:01.000Z,270
2023-03-28T13:52:18.414Z,264
2023-03-28T13:53:34.000Z,264
2023-03-28T13:54:50.912Z,258
2023-03-28T13:56:06.000Z,253
2023-03-28T13:57:23.000Z,253
2023-03-28T13:58:39.000Z,247
2023-03-28T13:59:54.000Z,236
2023-03-28T14:01:09.000Z,236
2023-03-28T14:02:25.000Z,236
2023-03-28T14:03:40.620Z,236
2023-03-28T14:04:55.000Z,236
2023-03-28T14:06:11.000Z,230
2023-03-28T14:07:28.000Z,230
2023-03-28T14:08:44.000Z,213
2023-03-28T14:10:00.000Z,219
2023-03-28T14:11:17.032Z,213
2023-03-28T14:12:33.000Z,208
2023-03-28T14:13:49.000Z,208
2023-03-28T14:15:05.000Z,208
2023-03-28T14:16:21.000Z,202
2023-03-28T14:17:37.000Z,202
2023-03-28T14:18:54.000Z,202
2023-03-28T14:20:10.000Z,196
2023-03-28T14:21:25.000Z,191
2023-03-28T14:22:41.000Z,196
2023-03-28T14:23:58.000Z,191
2023-03-28T14:25:14.000Z,196
2023-03-28T14:26:30.000Z,191
2023-03-28T14:27:46.000Z,185
2023-03-28T14:29:03.000Z,174
2023-03-28T14:30:18.000Z,168
2023-03-28T14:31:33.000Z,168
2023-03-28T14:32:49.089Z,168
2023-03-28T14:34:04.000Z,168
2023-03-28T14:35:20.000Z,168
2023-03-28T14:36:36.000Z,163
2023-03-28T14:37:52.000Z,163
2023-03-28T14:39:09.000Z,151
2023-03-28T14:40:25.000Z,146
2023-03-28T14:41:41.000Z,146
2023-03-28T14:42:57.974Z,151
2023-03-28T14:44:13.000Z,151
2023-03-28T14:46:46.658Z,157
2023-03-28T14:48:02.000Z,163
2023-03-28T14:49:18.000Z,174
2023-03-28T14:50:34.000Z,180
2023-03-28T14:51:50.000Z,196
2023-03-28T14:53:06.863Z,191
2023-03-28T14:54:22.000Z,191
2023-03-28T14:55:39.310Z,185
2023-03-28T14:56:55.000Z,174
2023-03-28T14:58:11.000Z,163
2023-03-28T14:59:27.000Z,151
2023-03-28T15:00:44.000Z,140
2023-03-28T15:02:00.000Z,135
2023-03-28T15:03:16.000Z,135
2023-03-28T15:04:32.964Z,135
2023-03-28T15:05:48.000Z,140
2023-03-28T15:07:04.000Z,135
2023-03-28T15:08:20.000Z,135
2023-03-28T15:09:36.904Z,140
2023-03-28T15:10:53.169Z,140
2023-03-28T15:12:09.000Z,140
2023-03-28T15:13:25.000Z,140
2023-03-28T15:14:41.000Z,140
2023-03-28T15:15:57.000Z,140
2023-03-28T15:17:14.299Z,140
2023-03-28T15:18:29.000Z,140
2023-03-28T15:19:44.000Z,140
2023-03-28T15:21:00.058Z,140
2023-03-28T15:22:15.000Z,146
2023-03-28T15:23:31.000Z,146
2023-03-28T15:24:47.000Z,135
2023-03-28T15:26:03.000Z,123
2023-03-28T15:27:20.000Z,118
2023-03-28T15:28:36.000Z,118
2023-03-28T15:29:52.852Z,118
2023-03-28T15:31:08.000Z,118
2023-03-28T15:32:24.000Z,118
2023-03-28T15:33:41.000Z,118
2023-03-28T15:34:57.000Z,118
2023-03-28T15:36:13.000Z,112
2023-03-28T15:37:29.000Z,106
2023-03-28T15:38:45.000Z,101
2023-03-28T15:40:01.000Z,95
2023-03-28T15:41:17.000Z,90
2023-03-28T15:42:34.082Z,90
2023-03-28T15:43:50.000Z,90
2023-03-28T15:45:06.000Z,90
2023-03-28T15:46:22.773Z,90
2023-03-28T15:47:38.000Z,84
2023-03-28T15:48:55.247Z,78
2023-03-28T15:50:11.000Z,78
2023-03-28T15:51:26.736Z,78
2023-03-28T15:52:41.990Z,78
2023-03-28T15:53:57.000Z,84
2023-03-28T15:55:13.000Z,84
2023-03-28T15:56:28.000Z,90
2023-03-28T15:57:44.000Z,90
2023-03-28T15:59:00.000Z,95
2023-03-28T16:00:17.000Z,101
2023-03-28T16:01:33.000Z,101
2023-03-28T16:02:49.000Z,101
2023-03-28T16:04:05.000Z,101
2023-03-28T16:05:22.368Z,106
2023-03-28T16:06:38.000Z,101
2023-03-28T16:07:54.818Z,101
2023-03-28T16:09:10.000Z,95
2023-03-28T16:10:27.000Z,84
2023-03-28T16:11:43.000Z,73
2023-03-28T16:12:58.000Z,67
2023-03-28T16:14:14.000Z,61
2023-03-28T16:15:30.000Z,61
2023-03-28T16:16:47.000Z,56
2023-03-28T16:18:03.000Z,56
2023-03-28T16:19:19.000Z,56
2023-03-28T16:20:36.196Z,56
2023-03-28T16:21:51.448Z,56
2023-03-28T16:23:06.707Z,56
2023-03-28T16:24:22.000Z,56
2023-03-28T16:25:38.000Z,56
2023-03-28T16:26:54.426Z,50
2023-03-28T16:28:09.000Z,56
2023-03-28T16:29:25.000Z,56
2023-03-28T16:30:41.000Z,50
2023-03-28T16:31:58.000Z,56
2023-03-28T16:33:14.000Z,56
2023-03-28T16:34:30.000Z,56
2023-03-28T16:35:46.000Z,50
2023-03-28T16:37:03.000Z,50
2023-03-28T16:38:19.000Z,50
2023-03-28T16:39:35.000Z,45
2023-03-28T16:40:51.000Z,39
2023-03-28T16:42:07.000Z,39
2023-03-28T16:43:24.000Z,33
2023-03-28T16:44:39.000Z,33
2023-03-28T16:45:55.000Z,33
2023-03-28T16:47:11.000Z,28
2023-03-28T16:48:28.000Z,28
2023-03-28T16:49:44.000Z,28
2023-03-28T16:51:00.000Z,28
2023-03-28T16:52:16.000Z,22
2023-03-28T16:53:33.000Z,22
2023-03-28T16:54:48.597Z,22
2023-03-28T16:56:03.000Z,22
2023-03-28T16:57:18.000Z,22
2023-03-28T16:58:34.000Z,22
2023-03-28T16:59:50.612Z,22
2023-03-28T17:01:06.000Z,22
2023-03-28T17:02:22.000Z,22
2023-03-28T17:03:39.000Z,22
2023-03-28T17:04:55.000Z,22
2023-03-28T17:06:11.000Z,16
2023-03-28T17:07:27.000Z,16
2023-03-28T17:08:44.233Z,16
2023-03-28T17:10:00.000Z,11
2023-03-28T17:11:16.000Z,11
2023-03-28T17:12:32.000Z,11
2023-03-28T17:13:48.000Z,11
2023-03-28T17:15:04.000Z,11
2023-03-28T17:16:20.636Z,5
2023-03-28T17:17:36.000Z,5
2023-03-28T17:18:52.000Z,5
2023-03-28T17:20:09.000Z,5
2023-03-28T17:21:25.000Z,5
2023-03-28T17:22:41.000Z,5
2023-03-28T17:23:56.000Z,5
2023-03-28T17:25:12.000Z,5
2023-03-28T17:26:28.586Z,5
2023-03-28T17:27:43.000Z,5
2023-03-28T17:28:58.000Z,5
2023-03-28T17:30:15.312Z,5
2023-03-28T17:31:31.539Z,5
2023-03-28T17:32:47.000Z,5
2023-03-28T17:34:03.000Z,5
2023-03-28T17:35:20.219Z,5
2023-03-28T17:36:36.478Z,5
2023-03-28T17:37:52.000Z,0
2023-03-28T17:39:08.000Z,0
2023-03-28T17:40:24.000Z,0
2023-03-28T17:41:41.392Z,0
2023-03-28T17:42:57.000Z,0
2023-03-28T17:44:13.000Z,0
2023-03-28T17:45:28.000Z,0
2023-03-28T17:46:45.000Z,0
2023-03-28T17:48:01.000Z,0
2023-03-28T17:49:17.000Z,0
2023-03-28T17:50:33.000Z,0
2023-03-28T17:51:50.000Z,0
2023-03-28T17:53:06.000Z,0
2023-03-28T17:54:22.000Z,0
2023-03-28T17:55:38.000Z,0
2023-03-28T17:56:54.000Z,0
2023-03-28T17:58:11.000Z,0
2023-03-28T17:59:27.000Z,0
2023-03-28T18:00:43.000Z,0
2023-03-28T18:01:58.000Z,0
2023-03-28T18:03:15.000Z,0
2023-03-28T18:04:31.000Z,0
2023-03-28T18:05:47.000Z,0
2023-03-28T18:07:03.000Z,0
2023-03-28T18:08:20.000Z,0
2023-03-28T18:09:36.000Z,0
2023-03-28T18:10:52.000Z,0
2023-03-28T18:12:08.000Z,0
2023-03-28T18:13:25.000Z,0